Аэропорт: Шпаковское. Ставрополь

ICAO: URMT

METAR:
2020-06-04 04:00:00
URMT 040400Z 36002MPS 320V030 CAVOK 15/11 Q1013 R25/290055 NOSIG RMK QFE721
METAR:
2020-06-04 02:00:00
TAF URMT 040200Z 0403/0412 33003G08MPS 9999 SCT020 TEMPO 0403/0406 VRB01MPS 3100 BR SCT011 BKN020 BECMG 0406/0408 08003G08MPS